createdAt,value
2018-06-29T00:00:22.030Z,0
2018-06-29T00:01:31.844Z,0
2018-06-29T00:02:41.999Z,0
2018-06-29T00:03:52.254Z,0
2018-06-29T00:05:02.532Z,0
2018-06-29T00:06:12.755Z,0
2018-06-29T00:07:22.997Z,0
2018-06-29T00:08:33.210Z,0
2018-06-29T00:09:43.376Z,0
2018-06-29T00:10:53.587Z,0
2018-06-29T00:12:03.950Z,0
2018-06-29T00:13:13.872Z,0
2018-06-29T00:14:24.050Z,0
2018-06-29T00:15:34.191Z,0
2018-06-29T00:16:44.481Z,0
2018-06-29T00:17:54.444Z,0
2018-06-29T00:19:04.332Z,0
2018-06-29T00:20:14.586Z,0
2018-06-29T00:21:24.739Z,0
2018-06-29T00:22:35.879Z,0
2018-06-29T00:23:46.025Z,0
2018-06-29T00:24:56.284Z,0
2018-06-29T00:26:06.455Z,0
2018-06-29T00:27:16.761Z,0
2018-06-29T00:28:26.949Z,0
2018-06-29T00:29:37.213Z,0
2018-06-29T00:30:47.168Z,0
2018-06-29T00:31:57.299Z,0
2018-06-29T00:33:07.464Z,0
2018-06-29T00:34:17.607Z,0
2018-06-29T00:35:27.548Z,0
2018-06-29T00:36:37.561Z,0
2018-06-29T00:37:47.729Z,0
2018-06-29T00:38:57.868Z,0
2018-06-29T00:40:08.147Z,0
2018-06-29T00:41:18.744Z,0
2018-06-29T00:42:28.651Z,0
2018-06-29T00:43:38.852Z,0
2018-06-29T00:44:49.657Z,0
2018-06-29T00:46:00.127Z,0
2018-06-29T00:47:10.593Z,0
2018-06-29T00:48:20.441Z,0
2018-06-29T00:49:30.608Z,0
2018-06-29T00:50:40.494Z,0
2018-06-29T00:51:50.619Z,0
2018-06-29T00:53:00.762Z,0
2018-06-29T00:54:10.923Z,0
2018-06-29T00:55:21.008Z,0
2018-06-29T00:56:31.233Z,0
2018-06-29T00:57:41.541Z,0
2018-06-29T00:58:51.716Z,0
2018-06-29T01:00:02.076Z,0
2018-06-29T01:01:11.864Z,0
2018-06-29T01:02:22.003Z,0
2018-06-29T01:03:31.552Z,0
2018-06-29T01:04:42.400Z,0
2018-06-29T01:05:52.540Z,0
2018-06-29T01:07:02.470Z,0
2018-06-29T01:08:12.800Z,0
2018-06-29T01:09:22.772Z,0
2018-06-29T01:10:32.954Z,0
2018-06-29T01:11:45.408Z,0
2018-06-29T01:12:56.185Z,0
2018-06-29T01:14:06.320Z,0
2018-06-29T01:15:16.485Z,0
2018-06-29T01:16:26.649Z,0
2018-06-29T01:17:36.461Z,0
2018-06-29T01:18:46.590Z,0
2018-06-29T01:19:56.733Z,0
2018-06-29T01:21:06.971Z,0
2018-06-29T01:22:17.246Z,0
2018-06-29T01:23:27.400Z,0
2018-06-29T01:24:37.543Z,0
2018-06-29T01:25:47.829Z,0
2018-06-29T01:26:58.006Z,0
2018-06-29T01:28:08.416Z,0
2018-06-29T01:29:18.562Z,0
2018-06-29T01:30:28.698Z,0
2018-06-29T01:31:38.602Z,0
2018-06-29T01:32:48.821Z,0
2018-06-29T01:33:59.017Z,0
2018-06-29T01:35:09.147Z,0
2018-06-29T01:36:19.276Z,0
2018-06-29T01:37:29.155Z,0
2018-06-29T01:38:39.290Z,0
2018-06-29T01:39:49.527Z,0
2018-06-29T01:40:59.086Z,0
2018-06-29T01:42:09.266Z,0
2018-06-29T01:43:19.417Z,0
2018-06-29T01:44:29.579Z,0
2018-06-29T01:45:39.707Z,0
2018-06-29T01:46:49.871Z,0
2018-06-29T01:48:00.057Z,0
2018-06-29T01:49:10.238Z,0
2018-06-29T01:50:20.490Z,0
2018-06-29T01:51:30.478Z,0
2018-06-29T01:52:40.864Z,0
2018-06-29T01:53:51.234Z,0
2018-06-29T01:55:01.371Z,0
2018-06-29T01:56:11.778Z,0
2018-06-29T01:57:21.669Z,0
2018-06-29T01:58:32.529Z,0
2018-06-29T01:59:42.705Z,0
2018-06-29T02:00:52.852Z,0
2018-06-29T02:02:02.985Z,0
2018-06-29T02:03:13.322Z,0
2018-06-29T02:04:23.445Z,0
2018-06-29T02:05:33.557Z,0
2018-06-29T02:06:43.457Z,0
2018-06-29T02:07:53.349Z,0
2018-06-29T02:09:03.287Z,0
2018-06-29T02:10:13.428Z,0
2018-06-29T02:11:23.679Z,0
2018-06-29T02:12:34.025Z,0
2018-06-29T02:13:44.169Z,4
2018-06-29T02:14:54.344Z,4
2018-06-29T02:16:04.483Z,0
2018-06-29T02:17:14.689Z,0
2018-06-29T02:18:24.885Z,4
2018-06-29T02:19:35.152Z,4
2018-06-29T02:20:45.375Z,4
2018-06-29T02:21:55.543Z,4
2018-06-29T02:23:05.810Z,4
2018-06-29T02:24:15.986Z,8
2018-06-29T02:25:26.146Z,4
2018-06-29T02:26:36.390Z,8
2018-06-29T02:27:47.360Z,8
2018-06-29T02:28:57.480Z,12
2018-06-29T02:30:07.657Z,12
2018-06-29T02:31:17.858Z,16
2018-06-29T02:32:28.018Z,12
2018-06-29T02:33:38.026Z,16
2018-06-29T02:34:48.452Z,16
2018-06-29T02:35:58.675Z,24
2018-06-29T02:37:08.596Z,28
2018-06-29T02:38:18.723Z,28
2018-06-29T02:39:28.922Z,36
2018-06-29T02:40:39.185Z,40
2018-06-29T02:41:49.312Z,44
2018-06-29T02:42:59.565Z,48
2018-06-29T02:44:09.826Z,56
2018-06-29T02:45:20.028Z,64
2018-06-29T02:46:29.675Z,72
2018-06-29T02:47:39.970Z,80
2018-06-29T02:48:51.073Z,92
2018-06-29T02:50:00.964Z,108
2018-06-29T02:51:11.209Z,116
2018-06-29T02:52:21.422Z,128
2018-06-29T02:53:31.611Z,140
2018-06-29T02:54:41.257Z,152
2018-06-29T02:55:51.399Z,168
2018-06-29T02:57:01.541Z,184
2018-06-29T02:58:11.712Z,200
2018-06-29T02:59:21.846Z,216
2018-06-29T03:00:31.711Z,232
2018-06-29T03:01:41.871Z,244
2018-06-29T03:02:52.031Z,264
2018-06-29T03:04:02.236Z,284
2018-06-29T03:05:12.385Z,304
2018-06-29T03:06:22.550Z,320
2018-06-29T03:07:32.744Z,340
2018-06-29T03:08:42.663Z,364
2018-06-29T03:09:52.784Z,384
2018-06-29T03:11:02.960Z,404
2018-06-29T03:12:13.199Z,424
2018-06-29T03:13:23.413Z,448
2018-06-29T03:14:33.622Z,468
2018-06-29T03:15:43.520Z,496
2018-06-29T03:16:53.726Z,516
2018-06-29T03:18:03.879Z,540
2018-06-29T03:19:14.075Z,564
2018-06-29T03:20:24.233Z,584
2018-06-29T03:21:34.420Z,612
2018-06-29T03:22:44.615Z,636
2018-06-29T03:23:54.546Z,660
2018-06-29T03:25:04.759Z,684
2018-06-29T03:26:14.744Z,712
2018-06-29T03:27:25.101Z,740
2018-06-29T03:28:34.977Z,764
2018-06-29T03:29:45.525Z,784
2018-06-29T03:30:55.737Z,812
2018-06-29T03:32:05.969Z,836
2018-06-29T03:33:15.918Z,864
2018-06-29T03:34:26.091Z,888
2018-06-29T03:35:36.219Z,912
2018-06-29T03:36:46.092Z,940
2018-06-29T03:37:55.858Z,964
2018-06-29T03:39:05.747Z,988
2018-06-29T03:40:17.264Z,1016
2018-06-29T03:41:27.518Z,1040
2018-06-29T03:42:37.679Z,1064
2018-06-29T03:43:47.811Z,1092
2018-06-29T03:44:58.208Z,1120
2018-06-29T03:46:08.366Z,1140
2018-06-29T03:47:18.722Z,1168
2018-06-29T03:48:28.603Z,1192
2018-06-29T03:49:38.984Z,1216
2018-06-29T03:50:49.144Z,1240
2018-06-29T03:51:58.723Z,1268
2018-06-29T03:53:09.693Z,1292
2018-06-29T03:54:19.826Z,1316
2018-06-29T03:55:29.971Z,1344
2018-06-29T03:56:40.114Z,1368
2018-06-29T03:57:50.048Z,1392
2018-06-29T03:59:00.179Z,1420
2018-06-29T04:00:10.356Z,1444
2018-06-29T04:01:20.697Z,1464
2018-06-29T04:02:30.824Z,1484
2018-06-29T04:03:40.984Z,1512
2018-06-29T04:04:50.853Z,1532
2018-06-29T04:06:00.750Z,1556
2018-06-29T04:07:10.876Z,1580
2018-06-29T04:08:21.024Z,1604
2018-06-29T04:09:31.150Z,1628
2018-06-29T04:10:41.338Z,1652
2018-06-29T04:11:51.907Z,1672
2018-06-29T04:13:02.356Z,1696
2018-06-29T04:14:12.336Z,1720
2018-06-29T04:15:22.886Z,1744
2018-06-29T04:16:33.046Z,1768
2018-06-29T04:17:42.691Z,1796
2018-06-29T04:18:52.897Z,1816
2018-06-29T04:20:03.044Z,1840
2018-06-29T04:21:13.382Z,1868
2018-06-29T04:22:23.632Z,1892
2018-06-29T04:23:33.796Z,1916
2018-06-29T04:24:43.702Z,1944
2018-06-29T04:25:54.183Z,1968
2018-06-29T04:27:04.464Z,1992
2018-06-29T04:28:14.685Z,2020
2018-06-29T04:29:24.921Z,2044
2018-06-29T04:30:35.110Z,2068
2018-06-29T04:31:45.332Z,2088
2018-06-29T04:32:56.130Z,2112
2018-06-29T04:34:06.026Z,2136
2018-06-29T04:35:16.172Z,2160
2018-06-29T04:36:26.313Z,2184
2018-06-29T04:37:36.488Z,2212
2018-06-29T04:38:46.401Z,2240
2018-06-29T04:39:56.542Z,2264
2018-06-29T04:41:06.721Z,2292
2018-06-29T04:42:16.827Z,2316
2018-06-29T04:43:27.077Z,2340
2018-06-29T04:44:37.234Z,2360
2018-06-29T04:45:47.360Z,2384
2018-06-29T04:46:57.490Z,2400
2018-06-29T04:48:07.612Z,2420
2018-06-29T04:49:17.582Z,2444
2018-06-29T04:50:27.871Z,2464
2018-06-29T04:51:38.179Z,2484
2018-06-29T04:52:48.382Z,2504
2018-06-29T04:53:58.580Z,2528
2018-06-29T04:55:08.755Z,2548
2018-06-29T04:56:18.923Z,2568
2018-06-29T04:58:00.972Z,2596
2018-06-29T04:59:11.155Z,2616
2018-06-29T05:00:21.445Z,2636
2018-06-29T05:01:31.179Z,2656
2018-06-29T05:02:41.047Z,2680
2018-06-29T05:03:51.236Z,2696
2018-06-29T05:05:01.579Z,2720
2018-06-29T05:06:11.449Z,2740
2018-06-29T05:07:21.310Z,2756
2018-06-29T05:08:31.511Z,2776
2018-06-29T05:09:41.694Z,2796
2018-06-29T05:10:51.940Z,2812
2018-06-29T05:12:02.182Z,2832
2018-06-29T05:13:12.480Z,2848
2018-06-29T05:14:22.648Z,2864
2018-06-29T05:15:33.051Z,2876
2018-06-29T05:16:43.699Z,2896
2018-06-29T05:17:53.910Z,2912
2018-06-29T05:19:04.153Z,2928
2018-06-29T05:20:14.307Z,2944
2018-06-29T05:21:24.644Z,2960
2018-06-29T05:22:34.774Z,2972
2018-06-29T05:23:44.545Z,2992
2018-06-29T05:24:54.425Z,3012
2018-06-29T05:26:04.564Z,3028
2018-06-29T05:27:14.720Z,3044
2018-06-29T05:28:24.881Z,3064
2018-06-29T05:29:35.262Z,3080
2018-06-29T05:30:45.399Z,3092
2018-06-29T05:31:55.568Z,3100
2018-06-29T05:33:05.754Z,3112
2018-06-29T05:34:15.906Z,3124
2018-06-29T05:35:25.682Z,3136
2018-06-29T05:36:35.855Z,3152
2018-06-29T05:37:46.049Z,3168
2018-06-29T05:38:56.280Z,3180
2018-06-29T05:40:06.655Z,3200
2018-06-29T05:41:17.048Z,3208
2018-06-29T05:42:27.078Z,3232
2018-06-29T05:43:37.209Z,3236
2018-06-29T05:44:47.416Z,3252
2018-06-29T05:45:57.599Z,3264
2018-06-29T05:47:07.994Z,3272
2018-06-29T05:48:18.850Z,3292
2018-06-29T05:49:28.825Z,3300
2018-06-29T05:50:39.014Z,3312
2018-06-29T05:51:49.238Z,3324
2018-06-29T05:52:59.411Z,3336
2018-06-29T05:54:09.645Z,3348
2018-06-29T05:55:19.545Z,3360
2018-06-29T05:56:29.749Z,3372
2018-06-29T05:57:40.137Z,3384
2018-06-29T05:58:50.059Z,3400
2018-06-29T06:00:00.327Z,3412
2018-06-29T06:01:10.514Z,3420
2018-06-29T06:02:20.757Z,3436
2018-06-29T06:03:30.917Z,3448
2018-06-29T06:04:41.284Z,3452
2018-06-29T06:05:51.173Z,3464
2018-06-29T06:07:01.339Z,3472
2018-06-29T06:08:11.529Z,3476
2018-06-29T06:09:21.698Z,3496
2018-06-29T06:10:31.860Z,3508
2018-06-29T06:11:42.040Z,3520
2018-06-29T06:12:52.277Z,3532
2018-06-29T06:14:02.463Z,3548
2018-06-29T06:15:12.352Z,3560
2018-06-29T06:16:22.520Z,3568
2018-06-29T06:17:32.675Z,3580
2018-06-29T06:18:42.873Z,3584
2018-06-29T06:19:53.090Z,3588
2018-06-29T06:21:03.592Z,3600
2018-06-29T06:22:13.741Z,3604
2018-06-29T06:23:23.901Z,3612
2018-06-29T06:24:34.034Z,3616
2018-06-29T06:25:44.224Z,3628
2018-06-29T06:26:54.444Z,3628
2018-06-29T06:28:04.358Z,3640
2018-06-29T06:29:14.515Z,3652
2018-06-29T06:30:24.852Z,3660
2018-06-29T06:31:35.481Z,3668
2018-06-29T06:32:45.620Z,3676
2018-06-29T06:33:56.000Z,3684
2018-06-29T06:35:06.159Z,3684
2018-06-29T06:36:16.350Z,3700
2018-06-29T06:37:26.534Z,3700
2018-06-29T06:38:36.679Z,3708
2018-06-29T06:39:46.942Z,3712
2018-06-29T06:40:57.123Z,3712
2018-06-29T06:42:07.259Z,3712
2018-06-29T06:43:17.419Z,3716
2018-06-29T06:44:27.556Z,3716
2018-06-29T06:45:37.680Z,3716
2018-06-29T06:46:47.842Z,3720
2018-06-29T06:47:57.733Z,3720
2018-06-29T06:49:07.957Z,3728
2018-06-29T06:50:18.430Z,3732
2018-06-29T06:51:28.648Z,3740
2018-06-29T06:52:38.977Z,3748
2018-06-29T06:53:49.663Z,3764
2018-06-29T06:54:59.647Z,3764
2018-06-29T06:56:09.836Z,3768
2018-06-29T06:57:19.998Z,3768
2018-06-29T06:58:29.795Z,3768
2018-06-29T06:59:39.974Z,3768
2018-06-29T07:00:50.180Z,3772
2018-06-29T07:01:59.962Z,3776
2018-06-29T07:03:09.843Z,3788
2018-06-29T07:04:20.013Z,3784
2018-06-29T07:05:30.209Z,3796
2018-06-29T07:06:40.368Z,3792
2018-06-29T07:07:50.687Z,3796
2018-06-29T07:09:00.904Z,3792
2018-06-29T07:10:11.067Z,3800
2018-06-29T07:11:21.254Z,3796
2018-06-29T07:12:31.864Z,3792
2018-06-29T07:13:42.046Z,3792
2018-06-29T07:14:52.181Z,3792
2018-06-29T07:16:02.351Z,3808
2018-06-29T07:17:12.583Z,3820
2018-06-29T07:18:23.348Z,3816
2018-06-29T07:19:33.516Z,3820
2018-06-29T07:20:43.731Z,3824
2018-06-29T07:21:53.895Z,3828
2018-06-29T07:23:03.840Z,3848
2018-06-29T07:24:13.979Z,3864
2018-06-29T07:25:24.149Z,3868
2018-06-29T07:26:34.434Z,3872
2018-06-29T07:27:44.353Z,3868
2018-06-29T07:28:54.646Z,3880
2018-06-29T07:30:04.984Z,3880
2018-06-29T07:31:14.259Z,3884
2018-06-29T07:32:25.390Z,3892
2018-06-29T07:33:35.595Z,3900
2018-06-29T07:34:45.519Z,3916
2018-06-29T07:35:55.688Z,3932
2018-06-29T07:37:05.850Z,3956
2018-06-29T07:38:16.098Z,3976
2018-06-29T07:39:26.359Z,4000
2018-06-29T07:40:36.533Z,4024
2018-06-29T07:41:46.778Z,4052
2018-06-29T07:42:56.798Z,4080
2018-06-29T07:44:06.952Z,4108
2018-06-29T07:45:16.878Z,4136
2018-06-29T07:46:27.097Z,4164
2018-06-29T07:47:37.267Z,4200
2018-06-29T07:48:47.412Z,4232
2018-06-29T07:49:57.650Z,4264
2018-06-29T07:51:07.882Z,4284
2018-06-29T07:52:17.698Z,4320
2018-06-29T07:53:27.987Z,4356
2018-06-29T07:54:38.197Z,4380
2018-06-29T07:55:48.438Z,4400
2018-06-29T07:56:58.078Z,4424
2018-06-29T07:58:08.126Z,4452
2018-06-29T07:59:18.584Z,4488
2018-06-29T08:00:28.725Z,4524
2018-06-29T08:01:39.006Z,4560
2018-06-29T08:02:49.774Z,4596
2018-06-29T08:04:00.265Z,4624
2018-06-29T08:05:10.060Z,4668
2018-06-29T08:06:20.304Z,4700
2018-06-29T08:07:30.516Z,4744
2018-06-29T08:08:40.809Z,4788
2018-06-29T08:09:51.055Z,4824
2018-06-29T08:11:01.252Z,4856
2018-06-29T08:12:11.480Z,4888
2018-06-29T08:13:21.362Z,4932
2018-06-29T08:14:31.527Z,5000
2018-06-29T08:15:41.685Z,5060
2018-06-29T08:16:51.904Z,5128
2018-06-29T08:18:01.853Z,5164
2018-06-29T08:19:11.741Z,5204
2018-06-29T08:20:21.889Z,5240
2018-06-29T08:21:32.041Z,5276
2018-06-29T08:22:41.925Z,5280
2018-06-29T08:23:52.783Z,5300
2018-06-29T08:25:03.219Z,5324
2018-06-29T08:26:13.379Z,5352
2018-06-29T08:27:23.523Z,5376
2018-06-29T08:28:33.686Z,5396
2018-06-29T08:29:43.586Z,5440
2018-06-29T08:30:53.732Z,5480
2018-06-29T08:32:03.877Z,5528
2018-06-29T08:33:13.752Z,5592
2018-06-29T08:34:23.681Z,5636
2018-06-29T08:35:33.965Z,5688
2018-06-29T08:36:43.868Z,5680
2018-06-29T08:37:54.054Z,5680
2018-06-29T08:39:04.177Z,5672
2018-06-29T08:40:14.389Z,5720
2018-06-29T08:41:24.704Z,5808
2018-06-29T08:42:34.905Z,5936
2018-06-29T08:43:45.103Z,6676
2018-06-29T08:44:55.304Z,21952
2018-06-29T08:46:05.499Z,34496
2018-06-29T08:47:15.856Z,37568
2018-06-29T08:48:25.904Z,44256
2018-06-29T08:49:36.631Z,49952
2018-06-29T08:50:47.034Z,43520
2018-06-29T08:51:57.196Z,34400
2018-06-29T08:53:07.846Z,13440
2018-06-29T08:54:17.988Z,7036
2018-06-29T08:55:28.137Z,6768
2018-06-29T08:56:38.284Z,6756
2018-06-29T08:57:47.807Z,6752
2018-06-29T08:58:58.303Z,6824
2018-06-29T09:00:08.686Z,6996
2018-06-29T09:01:18.622Z,7284
2018-06-29T09:02:29.757Z,8132
2018-06-29T09:03:39.936Z,14688
2018-06-29T09:04:50.130Z,34336
2018-06-29T09:06:00.353Z,54400
2018-06-29T09:07:10.279Z,69120
2018-06-29T09:08:20.172Z,77248
2018-06-29T09:09:29.800Z,72672
2018-06-29T09:10:40.034Z,67392
2018-06-29T09:11:50.190Z,71680
2018-06-29T09:13:00.351Z,70464
2018-06-29T09:14:10.904Z,68864
2018-06-29T09:15:21.097Z,80960
2018-06-29T09:16:31.006Z,84512
2018-06-29T09:17:41.167Z,81376
2018-06-29T09:18:51.399Z,83328
2018-06-29T09:20:02.155Z,89984
2018-06-29T09:21:12.334Z,74624
2018-06-29T09:22:22.488Z,62944
2018-06-29T09:23:32.664Z,73472
2018-06-29T09:24:42.891Z,76576
2018-06-29T09:25:53.115Z,65344
2018-06-29T09:27:03.294Z,61952
2018-06-29T09:28:13.506Z,67104
2018-06-29T09:29:23.657Z,77152
2018-06-29T09:30:34.039Z,81696
2018-06-29T09:31:43.931Z,74112
2018-06-29T09:32:54.168Z,72896
2018-06-29T09:34:04.397Z,82624
2018-06-29T09:35:14.581Z,85664
2018-06-29T09:36:24.793Z,87712
2018-06-29T09:37:35.232Z,89856
2018-06-29T09:38:45.469Z,68576
2018-06-29T09:39:55.631Z,68800
2018-06-29T09:41:08.877Z,76352
2018-06-29T09:42:19.126Z,80192
2018-06-29T09:43:29.377Z,69344
2018-06-29T09:44:41.556Z,63360
2018-06-29T09:45:51.479Z,80736
2018-06-29T09:47:02.919Z,83616
2018-06-29T09:48:22.348Z,66176
2018-06-29T09:49:32.390Z,63680
2018-06-29T09:50:42.557Z,79520
2018-06-29T09:51:52.764Z,77600
2018-06-29T09:53:02.664Z,74560
2018-06-29T09:54:13.140Z,65984
2018-06-29T09:55:23.330Z,59584
2018-06-29T09:56:33.601Z,54016
2018-06-29T09:57:43.771Z,66080
2018-06-29T09:58:53.683Z,80000
2018-06-29T10:00:04.123Z,69632
2018-06-29T10:01:14.525Z,68800
2018-06-29T10:02:31.688Z,60192
2018-06-29T10:03:49.230Z,75008
2018-06-29T10:04:59.627Z,82304
2018-06-29T10:06:09.845Z,77344
2018-06-29T10:07:20.071Z,70432
2018-06-29T10:08:30.221Z,72352
2018-06-29T10:09:40.453Z,87296
2018-06-29T10:10:50.677Z,85440
2018-06-29T10:12:00.839Z,67616
2018-06-29T10:13:11.206Z,58752
2018-06-29T10:14:21.688Z,82752
2018-06-29T10:15:32.040Z,90208
2018-06-29T10:16:42.329Z,92640
2018-06-29T10:17:52.536Z,90784
2018-06-29T10:19:02.832Z,92000
2018-06-29T10:20:13.672Z,89728
2018-06-29T10:21:24.161Z,90720
2018-06-29T10:22:34.771Z,102880
2018-06-29T10:23:45.009Z,104288
2018-06-29T10:24:56.169Z,107104
2018-06-29T10:26:06.327Z,104192
2018-06-29T10:27:16.488Z,101280
2018-06-29T10:28:26.678Z,99648
2018-06-29T10:29:36.958Z,90528
2018-06-29T10:30:47.096Z,81600
2018-06-29T10:31:57.372Z,85824
2018-06-29T10:33:07.594Z,107072
2018-06-29T10:34:17.549Z,121152
2018-06-29T10:35:27.835Z,114336
2018-06-29T10:36:38.104Z,104448
2018-06-29T10:37:48.363Z,109824
2018-06-29T10:38:58.772Z,113856
2018-06-29T10:40:08.954Z,88672
2018-06-29T10:41:19.207Z,86400
2018-06-29T10:42:29.158Z,84064
2018-06-29T10:43:39.426Z,86112
2018-06-29T10:44:50.308Z,95200
2018-06-29T10:46:00.539Z,91552
2018-06-29T10:47:11.596Z,72864
2018-06-29T10:48:21.516Z,89312
2018-06-29T10:49:31.724Z,85376
2018-06-29T10:50:41.897Z,71744
2018-06-29T10:51:52.099Z,48640
2018-06-29T10:53:02.088Z,37184
2018-06-29T10:54:12.418Z,25792
2018-06-29T10:55:22.635Z,36320
2018-06-29T10:56:32.909Z,34944
2018-06-29T10:57:43.125Z,44192
2018-06-29T10:58:53.514Z,69920
2018-06-29T11:00:03.790Z,72768
2018-06-29T11:01:13.951Z,64256
2018-06-29T11:02:24.125Z,72320
2018-06-29T11:03:35.291Z,82720
2018-06-29T11:04:45.525Z,92704
2018-06-29T11:05:55.710Z,101856
2018-06-29T11:07:05.917Z,95840
2018-06-29T11:08:16.086Z,64384
2018-06-29T11:09:26.259Z,63744
2018-06-29T11:10:36.510Z,67744
2018-06-29T11:11:46.729Z,90560
2018-06-29T11:12:56.981Z,83328
2018-06-29T11:14:07.184Z,79840
2018-06-29T11:15:17.447Z,105952
2018-06-29T11:16:27.614Z,106688
2018-06-29T11:17:38.097Z,92704
2018-06-29T11:18:48.521Z,101440
2018-06-29T11:19:58.683Z,109312
2018-06-29T11:21:08.848Z,105632
2018-06-29T11:22:19.027Z,80704
2018-06-29T11:23:29.206Z,82944
2018-06-29T11:24:39.368Z,95328
2018-06-29T11:25:49.293Z,110336
2018-06-29T11:26:59.107Z,100384
2018-06-29T11:28:09.339Z,64704
2018-06-29T11:29:19.312Z,59968
2018-06-29T11:30:29.588Z,80608
2018-06-29T11:31:39.967Z,99040
2018-06-29T11:32:50.388Z,90720
2018-06-29T11:34:00.574Z,88096
2018-06-29T11:35:10.505Z,96224
2018-06-29T11:36:20.775Z,110976
2018-06-29T11:37:30.684Z,105952
2018-06-29T11:38:40.846Z,76960
2018-06-29T11:39:51.081Z,84160
2018-06-29T11:41:01.329Z,93504
2018-06-29T11:42:11.574Z,103008
2018-06-29T11:43:21.803Z,89440
2018-06-29T11:44:31.710Z,87840
2018-06-29T11:45:41.760Z,90336
2018-06-29T11:46:51.982Z,81728
2018-06-29T11:48:02.246Z,72320
2018-06-29T11:49:12.420Z,80160
2018-06-29T11:50:22.633Z,90592
2018-06-29T11:51:32.692Z,90560
2018-06-29T11:52:43.068Z,89152
2018-06-29T11:53:53.269Z,86208
2018-06-29T11:55:03.478Z,88864
2018-06-29T11:56:13.765Z,74720
2018-06-29T11:57:23.980Z,61216
2018-06-29T11:58:35.157Z,81216
2018-06-29T11:59:45.370Z,87488
2018-06-29T12:00:55.584Z,93696
2018-06-29T12:02:05.783Z,86336
2018-06-29T12:03:16.035Z,59968
2018-06-29T12:04:26.497Z,58464
2018-06-29T12:05:36.694Z,61664
2018-06-29T12:06:46.924Z,48736
2018-06-29T12:07:57.209Z,41184
2018-06-29T12:09:07.389Z,38656
2018-06-29T12:10:17.870Z,43904
2018-06-29T12:11:28.283Z,33664
2018-06-29T12:12:38.445Z,29440
2018-06-29T12:13:48.643Z,29312
2018-06-29T12:14:59.216Z,27392
2018-06-29T12:16:09.557Z,28544
2018-06-29T12:17:19.659Z,47744
2018-06-29T12:18:29.866Z,53216
2018-06-29T12:19:40.045Z,49440
2018-06-29T12:20:50.582Z,35936
2018-06-29T12:22:00.478Z,32992
2018-06-29T12:23:10.698Z,51584
2018-06-29T12:24:20.939Z,53888
2018-06-29T12:25:31.089Z,60096
2018-06-29T12:26:41.508Z,66144
2018-06-29T12:27:51.371Z,57760
2018-06-29T12:29:01.415Z,62336
2018-06-29T12:30:11.630Z,55200
2018-06-29T12:31:21.654Z,58720
2018-06-29T12:32:31.577Z,45312
2018-06-29T12:33:41.791Z,56480
2018-06-29T12:34:52.012Z,60256
2018-06-29T12:36:02.231Z,55584
2018-06-29T12:37:12.445Z,49824
2018-06-29T12:38:23.727Z,51776
2018-06-29T12:39:33.916Z,62496
2018-06-29T12:40:44.116Z,67104
2018-06-29T12:41:54.030Z,65184
2018-06-29T12:43:04.466Z,35200
2018-06-29T12:44:14.305Z,30720
2018-06-29T12:45:24.495Z,29632
2018-06-29T12:46:34.475Z,26240
2018-06-29T12:47:44.392Z,23232
2018-06-29T12:48:54.592Z,31904
2018-06-29T12:50:04.859Z,28896
2018-06-29T12:51:15.061Z,35328
2018-06-29T12:52:25.304Z,51872
2018-06-29T12:53:35.469Z,76384
2018-06-29T12:54:45.778Z,76480
2018-06-29T12:55:56.329Z,51456
2018-06-29T12:57:06.903Z,56768
2018-06-29T12:58:17.064Z,64320
2018-06-29T12:59:27.348Z,64928
2018-06-29T13:00:37.503Z,63328
2018-06-29T13:01:47.715Z,67008
2018-06-29T13:02:57.657Z,58560
2018-06-29T13:04:07.851Z,56576
2018-06-29T13:05:18.246Z,47360
2018-06-29T13:06:28.592Z,46272
2018-06-29T13:07:38.741Z,32512
2018-06-29T13:08:48.652Z,35328
2018-06-29T13:09:58.857Z,31136
2018-06-29T13:11:09.013Z,24000
2018-06-29T13:12:19.214Z,21120
2018-06-29T13:13:29.394Z,21664
2018-06-29T13:14:39.638Z,31264
2018-06-29T13:15:49.847Z,26272
2018-06-29T13:17:00.073Z,24864
2018-06-29T13:18:10.260Z,31008
2018-06-29T13:19:20.451Z,38848
2018-06-29T13:20:30.910Z,52160
2018-06-29T13:21:41.075Z,59872
2018-06-29T13:22:51.277Z,75808
2018-06-29T13:24:01.073Z,77056
2018-06-29T13:25:11.264Z,87520
2018-06-29T13:26:21.279Z,90816
2018-06-29T13:27:31.281Z,95424
2018-06-29T13:28:41.472Z,95616
2018-06-29T13:29:51.681Z,91744
2018-06-29T13:31:02.100Z,72832
2018-06-29T13:32:12.408Z,70720
2018-06-29T13:33:22.710Z,72032
2018-06-29T13:34:32.889Z,81280
2018-06-29T13:35:43.098Z,82976
2018-06-29T13:36:53.303Z,77056
2018-06-29T13:38:03.498Z,70848
2018-06-29T13:39:13.789Z,59264
2018-06-29T13:40:23.742Z,51296
2018-06-29T13:41:33.957Z,56832
2018-06-29T13:42:44.144Z,68256
2018-06-29T13:43:54.720Z,74464
2018-06-29T13:45:05.028Z,72736
2018-06-29T13:46:15.189Z,60544
2018-06-29T13:47:25.399Z,48768
2018-06-29T13:48:35.842Z,57344
2018-06-29T13:49:45.743Z,82432
2018-06-29T13:50:56.008Z,85376
2018-06-29T13:52:06.211Z,70496
2018-06-29T13:53:16.428Z,49888
2018-06-29T13:54:26.650Z,44352
2018-06-29T13:55:36.834Z,62496
2018-06-29T13:56:47.036Z,78656
2018-06-29T13:57:57.294Z,72992
2018-06-29T13:59:07.208Z,63648
2018-06-29T14:00:17.383Z,62912
2018-06-29T14:01:27.598Z,62528
2018-06-29T14:02:38.211Z,62592
2018-06-29T14:03:48.535Z,52352
2018-06-29T14:04:58.378Z,30752
2018-06-29T14:06:08.610Z,59936
2018-06-29T14:07:18.791Z,70816
2018-06-29T14:08:28.980Z,67712
2018-06-29T14:09:39.166Z,60384
2018-06-29T14:10:49.111Z,62560
2018-06-29T14:11:59.333Z,79104
2018-06-29T14:13:09.230Z,81120
2018-06-29T14:14:19.437Z,68000
2018-06-29T14:15:30.334Z,61376
2018-06-29T14:16:40.506Z,61664
2018-06-29T14:17:50.682Z,58528
2018-06-29T14:19:00.858Z,57568
2018-06-29T14:20:11.054Z,61952
2018-06-29T14:21:21.238Z,63520
2018-06-29T14:22:31.452Z,60032
2018-06-29T14:23:41.825Z,60416
2018-06-29T14:24:52.082Z,64768
2018-06-29T14:26:02.254Z,61856
2018-06-29T14:27:12.438Z,60960
2018-06-29T14:28:22.641Z,72448
2018-06-29T14:29:32.840Z,73824
2018-06-29T14:30:42.910Z,55104
2018-06-29T14:31:52.747Z,44224
2018-06-29T14:33:02.984Z,53056
2018-06-29T14:34:13.184Z,60736
2018-06-29T14:35:23.536Z,53600
2018-06-29T14:36:33.771Z,45696
2018-06-29T14:37:43.703Z,49344
2018-06-29T14:38:53.285Z,57088
2018-06-29T14:40:03.456Z,58848
2018-06-29T14:41:13.673Z,53952
2018-06-29T14:42:23.893Z,56992
2018-06-29T14:43:34.093Z,60416
2018-06-29T14:44:44.308Z,26048
2018-06-29T14:45:54.505Z,44096
2018-06-29T14:47:04.694Z,48032
2018-06-29T14:48:14.894Z,70400
2018-06-29T14:49:25.818Z,69056
2018-06-29T14:50:36.028Z,53376
2018-06-29T14:51:46.107Z,46720
2018-06-29T14:52:56.042Z,51296
2018-06-29T14:54:06.233Z,52288
2018-06-29T14:55:16.415Z,48160
2018-06-29T14:56:26.565Z,47712
2018-06-29T14:57:36.745Z,44640
2018-06-29T14:58:46.932Z,46656
2018-06-29T14:59:57.112Z,45664
2018-06-29T15:01:07.314Z,33568
2018-06-29T15:02:17.697Z,9416
2018-06-29T15:03:27.872Z,8876
2018-06-29T15:04:38.044Z,16064
2018-06-29T15:05:48.280Z,16000
2018-06-29T15:06:58.502Z,13204
2018-06-29T15:08:08.729Z,12100
2018-06-29T15:09:18.938Z,11552
2018-06-29T15:10:29.132Z,12484
2018-06-29T15:11:39.515Z,13012
2018-06-29T15:12:49.715Z,12480
2018-06-29T15:13:59.883Z,11100
2018-06-29T15:15:10.046Z,11828
2018-06-29T15:16:20.273Z,11816
2018-06-29T15:17:30.442Z,11252
2018-06-29T15:18:40.647Z,11152
2018-06-29T15:19:50.831Z,11636
2018-06-29T15:21:00.787Z,11828
2018-06-29T15:22:10.933Z,11516
2018-06-29T15:23:21.125Z,10384
2018-06-29T15:24:31.281Z,9584
2018-06-29T15:25:41.542Z,10052
2018-06-29T15:26:51.342Z,10276
2018-06-29T15:28:01.557Z,9684
2018-06-29T15:29:11.947Z,9348
2018-06-29T15:30:22.144Z,9412
2018-06-29T15:31:32.442Z,9484
2018-06-29T15:32:43.051Z,9344
2018-06-29T15:33:52.972Z,9312
2018-06-29T15:35:03.186Z,9852
2018-06-29T15:36:13.489Z,9604
2018-06-29T15:37:23.674Z,9728
2018-06-29T15:38:33.870Z,9816